sensor_id;sensor_type;location;lat;lon;timestamp;pressure;altitude;pressure_sealevel;temperature;humidity
11038;BME280;5572;49.540;11.932;2023-02-21T00:01:01;96952.19;;;7.21;100.00
11038;BME280;5572;49.540;11.932;2023-02-21T00:03:45;96965.44;;;6.96;100.00
11038;BME280;5572;49.540;11.932;2023-02-21T00:06:30;96947.84;;;7.15;100.00
11038;BME280;5572;49.540;11.932;2023-02-21T00:09:14;96941.28;;;7.01;100.00
11038;BME280;5572;49.540;11.932;2023-02-21T00:11:59;96934.59;;;7.09;100.00
11038;BME280;5572;49.540;11.932;2023-02-21T00:14:43;96928.78;;;6.85;100.00
11038;BME280;5572;49.540;11.932;2023-02-21T00:17:29;96911.69;;;6.96;100.00
11038;BME280;5572;49.540;11.932;2023-02-21T00:20:14;96894.56;;;7.07;100.00
11038;BME280;5572;49.540;11.932;2023-02-21T00:22:58;96903.59;;;6.91;100.00
11038;BME280;5572;49.540;11.932;2023-02-21T00:25:42;96888.50;;;6.85;100.00
11038;BME280;5572;49.540;11.932;2023-02-21T00:28:27;96900.13;;;6.60;100.00
11038;BME280;5572;49.540;11.932;2023-02-21T00:31:11;96881.81;;;6.88;100.00
11038;BME280;5572;49.540;11.932;2023-02-21T00:33:57;96871.25;;;6.77;100.00
11038;BME280;5572;49.540;11.932;2023-02-21T00:36:42;96854.22;;;7.02;100.00
11038;BME280;5572;49.540;11.932;2023-02-21T00:39:27;96850.88;;;6.81;100.00
11038;BME280;5572;49.540;11.932;2023-02-21T00:42:11;96851.88;;;6.75;100.00
11038;BME280;5572;49.540;11.932;2023-02-21T00:44:55;96837.53;;;6.59;100.00
11038;BME280;5572;49.540;11.932;2023-02-21T00:47:40;96823.78;;;6.51;100.00
11038;BME280;5572;49.540;11.932;2023-02-21T00:50:26;96807.97;;;6.54;100.00
11038;BME280;5572;49.540;11.932;2023-02-21T00:53:11;96793.63;;;6.39;100.00
11038;BME280;5572;49.540;11.932;2023-02-21T00:55:55;96793.97;;;6.16;100.00
11038;BME280;5572;49.540;11.932;2023-02-21T00:58:40;96765.06;;;6.64;100.00
11038;BME280;5572;49.540;11.932;2023-02-21T01:01:24;96780.34;;;5.70;100.00
11038;BME280;5572;49.540;11.932;2023-02-21T01:04:09;96750.19;;;6.10;100.00
11038;BME280;5572;49.540;11.932;2023-02-21T01:06:56;96757.06;;;5.70;100.00
11038;BME280;5572;49.540;11.932;2023-02-21T01:09:40;96747.88;;;5.40;100.00
11038;BME280;5572;49.540;11.932;2023-02-21T01:12:24;96718.72;;;5.43;100.00
11038;BME280;5572;49.540;11.932;2023-02-21T01:15:09;96698.78;;;5.34;100.00
11038;BME280;5572;49.540;11.932;2023-02-21T01:17:54;96661.06;;;5.41;100.00
11038;BME280;5572;49.540;11.932;2023-02-21T01:20:39;96640.94;;;5.38;100.00
11038;BME280;5572;49.540;11.932;2023-02-21T01:23:25;96606.88;;;5.34;100.00
11038;BME280;5572;49.540;11.932;2023-02-21T01:26:10;96578.03;;;5.46;100.00
11038;BME280;5572;49.540;11.932;2023-02-21T01:31:30;96523.22;;;5.68;100.00
11038;BME280;5572;49.540;11.932;2023-02-21T01:34:14;96516.22;;;5.62;100.00
11038;BME280;5572;49.540;11.932;2023-02-21T01:36:59;96530.56;;;5.10;100.00
11038;BME280;5572;49.540;11.932;2023-02-21T01:39:45;96532.69;;;4.77;100.00
11038;BME280;5572;49.540;11.932;2023-02-21T01:42:29;96495.41;;;4.70;100.00
11038;BME280;5572;49.540;11.932;2023-02-21T01:45:38;96478.66;;;4.53;100.00
11038;BME280;5572;49.540;11.932;2023-02-21T01:48:25;96439.47;;;4.69;100.00
11038;BME280;5572;49.540;11.932;2023-02-21T01:51:12;96440.69;;;4.56;100.00
11038;BME280;5572;49.540;11.932;2023-02-21T01:53:57;96406.69;;;4.52;100.00
11038;BME280;5572;49.540;11.932;2023-02-21T01:56:45;96378.88;;;4.58;100.00
11038;BME280;5572;49.540;11.932;2023-02-21T01:59:30;96349.44;;;4.58;100.00
11038;BME280;5572;49.540;11.932;2023-02-21T02:02:18;96316.75;;;4.51;100.00
11038;BME280;5572;49.540;11.932;2023-02-21T02:05:03;96310.91;;;4.59;100.00
11038;BME280;5572;49.540;11.932;2023-02-21T02:07:49;96257.22;;;6.76;100.00
11038;BME280;5572;49.540;11.932;2023-02-21T02:10:35;96219.56;;;6.95;100.00
11038;BME280;5572;49.540;11.932;2023-02-21T02:13:34;96243.84;;;7.34;100.00
11038;BME280;5572;49.540;11.932;2023-02-21T02:16:11;96262.16;;;7.27;100.00
11038;BME280;5572;49.540;11.932;2023-02-21T02:19:01;96272.72;;;7.08;100.00
11038;BME280;5572;49.540;11.932;2023-02-21T02:25:02;96352.16;;;7.34;100.00
11038;BME280;5572;49.540;11.932;2023-02-21T02:27:48;96343.06;;;7.25;100.00
11038;BME280;5572;49.540;11.932;2023-02-21T02:30:42;96386.56;;;7.37;100.00
11038;BME280;5572;49.540;11.932;2023-02-21T02:33:53;96416.22;;;7.12;100.00
11038;BME280;5572;49.540;11.932;2023-02-21T02:36:27;96419.44;;;6.99;100.00
11038;BME280;5572;49.540;11.932;2023-02-21T02:39:01;96423.19;;;7.23;100.00
11038;BME280;5572;49.540;11.932;2023-02-21T02:41:40;96436.31;;;7.45;100.00
11038;BME280;5572;49.540;11.932;2023-02-21T02:44:15;96447.31;;;7.48;100.00
11038;BME280;5572;49.540;11.932;2023-02-21T02:46:48;96455.34;;;7.68;100.00
11038;BME280;5572;49.540;11.932;2023-02-21T02:49:18;96459.34;;;7.70;100.00
11038;BME280;5572;49.540;11.932;2023-02-21T02:51:48;96469.84;;;7.77;100.00
11038;BME280;5572;49.540;11.932;2023-02-21T02:54:16;96478.69;;;7.87;100.00
11038;BME280;5572;49.540;11.932;2023-02-21T02:56:44;96504.19;;;8.05;100.00
11038;BME280;5572;49.540;11.932;2023-02-21T02:59:16;96500.69;;;8.04;100.00
11038;BME280;5572;49.540;11.932;2023-02-21T03:02:02;96506.63;;;8.16;100.00
11038;BME280;5572;49.540;11.932;2023-02-21T03:04:53;96509.03;;;8.13;100.00
11038;BME280;5572;49.540;11.932;2023-02-21T03:07:32;96526.00;;;8.18;100.00
11038;BME280;5572;49.540;11.932;2023-02-21T03:10:10;96534.06;;;8.03;100.00
11038;BME280;5572;49.540;11.932;2023-02-21T03:12:43;96543.47;;;8.16;100.00
11038;BME280;5572;49.540;11.932;2023-02-21T03:15:16;96563.94;;;8.12;100.00
11038;BME280;5572;49.540;11.932;2023-02-21T03:18:26;96560.44;;;8.11;100.00
11038;BME280;5572;49.540;11.932;2023-02-21T03:20:57;96574.44;;;8.23;100.00
11038;BME280;5572;49.540;11.932;2023-02-21T03:23:29;96568.75;;;8.15;100.00
11038;BME280;5572;49.540;11.932;2023-02-21T03:26:01;96581.13;;;8.26;100.00
11038;BME280;5572;49.540;11.932;2023-02-21T03:28:29;96587.66;;;8.00;100.00
11038;BME280;5572;49.540;11.932;2023-02-21T03:30:58;96611.03;;;7.99;100.00
11038;BME280;5572;49.540;11.932;2023-02-21T03:33:27;96614.03;;;8.03;100.00
11038;BME280;5572;49.540;11.932;2023-02-21T03:35:55;96619.41;;;8.03;100.00
11038;BME280;5572;49.540;11.932;2023-02-21T03:38:28;96630.44;;;8.01;100.00
11038;BME280;5572;49.540;11.932;2023-02-21T03:40:56;96623.72;;;7.89;100.00
11038;BME280;5572;49.540;11.932;2023-02-21T03:43:23;96618.34;;;7.74;100.00
11038;BME280;5572;49.540;11.932;2023-02-21T03:45:53;96645.50;;;7.63;100.00
11038;BME280;5572;49.540;11.932;2023-02-21T03:48:20;96662.47;;;7.53;100.00
11038;BME280;5572;49.540;11.932;2023-02-21T03:50:48;96650.34;;;7.51;100.00
11038;BME280;5572;49.540;11.932;2023-02-21T03:53:16;96677.25;;;7.51;100.00
11038;BME280;5572;49.540;11.932;2023-02-21T03:55:54;96678.03;;;7.46;100.00
11038;BME280;5572;49.540;11.932;2023-02-21T03:58:22;96661.63;;;7.33;100.00
11038;BME280;5572;49.540;11.932;2023-02-21T04:00:49;96661.63;;;7.43;100.00
11038;BME280;5572;49.540;11.932;2023-02-21T04:03:18;96659.19;;;7.36;100.00
11038;BME280;5572;49.540;11.932;2023-02-21T04:05:44;96652.78;;;7.42;100.00
11038;BME280;5572;49.540;11.932;2023-02-21T04:08:11;96625.88;;;7.37;100.00
11038;BME280;5572;49.540;11.932;2023-02-21T04:10:38;96630.72;;;7.40;100.00
11038;BME280;5572;49.540;11.932;2023-02-21T04:13:06;96616.47;;;7.45;100.00
11038;BME280;5572;49.540;11.932;2023-02-21T04:15:33;96612.72;;;7.46;100.00
11038;BME280;5572;49.540;11.932;2023-02-21T04:18:00;96599.50;;;7.44;100.00
11038;BME280;5572;49.540;11.932;2023-02-21T04:20:31;96588.75;;;7.44;100.00
11038;BME280;5572;49.540;11.932;2023-02-21T04:22:58;96575.31;;;7.39;100.00
11038;BME280;5572;49.540;11.932;2023-02-21T04:25:24;96573.19;;;7.41;100.00
11038;BME280;5572;49.540;11.932;2023-02-21T04:27:51;96553.00;;;7.39;100.00
11038;BME280;5572;49.540;11.932;2023-02-21T04:30:19;96535.81;;;7.35;100.00
11038;BME280;5572;49.540;11.932;2023-02-21T04:32:46;96527.47;;;7.41;100.00
11038;BME280;5572;49.540;11.932;2023-02-21T04:35:14;96510.25;;;7.42;100.00
11038;BME280;5572;49.540;11.932;2023-02-21T04:37:45;96496.53;;;7.44;100.00
11038;BME280;5572;49.540;11.932;2023-02-21T04:40:14;96492.25;;;7.38;100.00
11038;BME280;5572;49.540;11.932;2023-02-21T04:42:41;96477.19;;;7.47;100.00
11038;BME280;5572;49.540;11.932;2023-02-21T04:45:08;96478.50;;;7.44;100.00
11038;BME280;5572;49.540;11.932;2023-02-21T04:47:36;96459.44;;;7.46;100.00
11038;BME280;5572;49.540;11.932;2023-02-21T04:50:03;96447.88;;;7.40;100.00
11038;BME280;5572;49.540;11.932;2023-02-21T04:52:29;96441.44;;;7.41;100.00
11038;BME280;5572;49.540;11.932;2023-02-21T04:54:56;96433.38;;;7.41;100.00
11038;BME280;5572;49.540;11.932;2023-02-21T04:57:23;96417.22;;;7.41;100.00
11038;BME280;5572;49.540;11.932;2023-02-21T04:59:55;96399.50;;;7.40;100.00
11038;BME280;5572;49.540;11.932;2023-02-21T05:02:22;96385.75;;;7.47;100.00
11038;BME280;5572;49.540;11.932;2023-02-21T05:04:50;96384.94;;;7.46;100.00
11038;BME280;5572;49.540;11.932;2023-02-21T05:07:25;96369.34;;;7.48;100.00
11038;BME280;5572;49.540;11.932;2023-02-21T05:09:53;96368.28;;;7.44;100.00
11038;BME280;5572;49.540;11.932;2023-02-21T05:12:20;96358.03;;;7.46;100.00
11038;BME280;5572;49.540;11.932;2023-02-21T05:14:49;96357.78;;;7.43;100.00
11038;BME280;5572;49.540;11.932;2023-02-21T05:17:17;96362.06;;;7.49;100.00
11038;BME280;5572;49.540;11.932;2023-02-21T05:19:45;96348.38;;;7.50;100.00
11038;BME280;5572;49.540;11.932;2023-02-21T05:22:13;96354.00;;;7.49;100.00
11038;BME280;5572;49.540;11.932;2023-02-21T05:24:45;96358.88;;;7.47;100.00
11038;BME280;5572;49.540;11.932;2023-02-21T05:27:29;96346.50;;;7.46;100.00
11038;BME280;5572;49.540;11.932;2023-02-21T05:29:55;96347.81;;;7.48;100.00
11038;BME280;5572;49.540;11.932;2023-02-21T05:32:22;96344.84;;;7.50;100.00
11038;BME280;5572;49.540;11.932;2023-02-21T05:34:53;96358.84;;;7.52;100.00
11038;BME280;5572;49.540;11.932;2023-02-21T05:37:21;96350.50;;;7.48;100.00
11038;BME280;5572;49.540;11.932;2023-02-21T05:39:48;96347.81;;;7.48;100.00
11038;BME280;5572;49.540;11.932;2023-02-21T05:42:17;96353.50;;;7.42;100.00
11038;BME280;5572;49.540;11.932;2023-02-21T05:44:44;96352.66;;;7.46;100.00
11038;BME280;5572;49.540;11.932;2023-02-21T05:47:12;96356.47;;;7.40;100.00
11038;BME280;5572;49.540;11.932;2023-02-21T05:49:39;96352.66;;;7.46;100.00
11038;BME280;5572;49.540;11.932;2023-02-21T05:52:10;96353.25;;;7.43;100.00
11038;BME280;5572;49.540;11.932;2023-02-21T05:54:39;96341.41;;;7.39;100.00
11038;BME280;5572;49.540;11.932;2023-02-21T05:57:07;96342.16;;;7.50;100.00
11038;BME280;5572;49.540;11.932;2023-02-21T05:59:34;96343.28;;;7.44;100.00
11038;BME280;5572;49.540;11.932;2023-02-21T06:02:02;96337.63;;;7.45;100.00
11038;BME280;5572;49.540;11.932;2023-02-21T06:04:29;96333.91;;;7.31;100.00
11038;BME280;5572;49.540;11.932;2023-02-21T06:06:55;96321.81;;;7.29;100.00
11038;BME280;5572;49.540;11.932;2023-02-21T06:09:23;96316.47;;;7.19;100.00
11038;BME280;5572;49.540;11.932;2023-02-21T06:12:00;96319.72;;;7.11;100.00
11038;BME280;5572;49.540;11.932;2023-02-21T06:14:26;96318.97;;;7.00;100.00
11038;BME280;5572;49.540;11.932;2023-02-21T06:16:53;96312.75;;;7.00;100.00
11038;BME280;5572;49.540;11.932;2023-02-21T06:19:20;96307.38;;;7.00;100.00
11038;BME280;5572;49.540;11.932;2023-02-21T06:21:47;96310.91;;;7.00;100.00
11038;BME280;5572;49.540;11.932;2023-02-21T06:24:14;96307.94;;;7.02;100.00
11038;BME280;5572;49.540;11.932;2023-02-21T06:26:41;96313.31;;;6.92;100.00
11038;BME280;5572;49.540;11.932;2023-02-21T06:29:09;96306.34;;;6.96;100.00
11038;BME280;5572;49.540;11.932;2023-02-21T06:31:36;96311.19;;;6.89;100.00
11038;BME280;5572;49.540;11.932;2023-02-21T06:34:03;96303.16;;;6.84;100.00
11038;BME280;5572;49.540;11.932;2023-02-21T06:36:30;96306.09;;;6.87;100.00
11038;BME280;5572;49.540;11.932;2023-02-21T06:38:57;96305.03;;;6.83;100.00
11038;BME280;5572;49.540;11.932;2023-02-21T06:41:25;96302.88;;;6.81;100.00
11038;BME280;5572;49.540;11.932;2023-02-21T06:43:52;96295.06;;;6.89;100.00
11038;BME280;5572;49.540;11.932;2023-02-21T06:46:22;96290.44;;;7.04;100.00
11038;BME280;5572;49.540;11.932;2023-02-21T06:48:50;96266.03;;;7.54;100.00
11038;BME280;5572;49.540;11.932;2023-02-21T06:51:17;96264.09;;;7.11;100.00
11038;BME280;5572;49.540;11.932;2023-02-21T06:53:45;96283.78;;;6.97;100.00
11038;BME280;5572;49.540;11.932;2023-02-21T06:56:14;96298.03;;;6.87;100.00
11038;BME280;5572;49.540;11.932;2023-02-21T06:58:40;96294.25;;;6.98;100.00
11038;BME280;5572;49.540;11.932;2023-02-21T07:01:07;96296.66;;;6.90;100.00
11038;BME280;5572;49.540;11.932;2023-02-21T07:03:38;96297.75;;;6.89;100.00
11038;BME280;5572;49.540;11.932;2023-02-21T07:06:04;96283.72;;;7.12;100.00
11038;BME280;5572;49.540;11.932;2023-02-21T07:08:31;96293.38;;;7.18;100.00
11038;BME280;5572;49.540;11.932;2023-02-21T07:10:57;96279.50;;;7.54;100.00
11038;BME280;5572;49.540;11.932;2023-02-21T07:13:24;96283.00;;;7.55;100.00
11038;BME280;5572;49.540;11.932;2023-02-21T07:15:51;96276.75;;;7.64;100.00
11038;BME280;5572;49.540;11.932;2023-02-21T07:18:19;96274.09;;;7.59;100.00
11038;BME280;5572;49.540;11.932;2023-02-21T07:20:46;96284.81;;;7.64;100.00
11038;BME280;5572;49.540;11.932;2023-02-21T07:23:13;96288.28;;;7.69;100.00
11038;BME280;5572;49.540;11.932;2023-02-21T07:25:40;96276.13;;;7.77;100.00
11038;BME280;5572;49.540;11.932;2023-02-21T07:28:07;96282.81;;;7.84;100.00
11038;BME280;5572;49.540;11.932;2023-02-21T07:30:33;96286.53;;;7.93;100.00
11038;BME280;5572;49.540;11.932;2023-02-21T07:33:00;96281.69;;;7.95;100.00
11038;BME280;5572;49.540;11.932;2023-02-21T07:35:28;96299.44;;;7.91;100.00
11038;BME280;5572;49.540;11.932;2023-02-21T07:37:56;96311.22;;;8.00;100.00
11038;BME280;5572;49.540;11.932;2023-02-21T07:40:25;96308.22;;;8.07;100.00
11038;BME280;5572;49.540;11.932;2023-02-21T07:42:52;96312.66;;;7.93;100.00
11038;BME280;5572;49.540;11.932;2023-02-21T07:45:20;96307.53;;;7.91;100.00
11038;BME280;5572;49.540;11.932;2023-02-21T07:47:48;96323.59;;;8.01;100.00
11038;BME280;5572;49.540;11.932;2023-02-21T07:50:17;96325.22;;;8.07;100.00
11038;BME280;5572;49.540;11.932;2023-02-21T07:52:44;96334.56;;;8.15;100.00
11038;BME280;5572;49.540;11.932;2023-02-21T07:55:13;96328.13;;;8.11;100.00
11038;BME280;5572;49.540;11.932;2023-02-21T07:57:39;96334.06;;;8.13;100.00
11038;BME280;5572;49.540;11.932;2023-02-21T08:00:07;96351.75;;;8.24;100.00
11038;BME280;5572;49.540;11.932;2023-02-21T08:02:34;96348.97;;;8.39;100.00
11038;BME280;5572;49.540;11.932;2023-02-21T08:05:01;96370.97;;;8.51;100.00
11038;BME280;5572;49.540;11.932;2023-02-21T08:07:28;96366.03;;;8.62;100.00
11038;BME280;5572;49.540;11.932;2023-02-21T08:09:55;96372.75;;;8.60;100.00
11038;BME280;5572;49.540;11.932;2023-02-21T08:12:23;96378.91;;;8.70;100.00
11038;BME280;5572;49.540;11.932;2023-02-21T08:14:50;96394.16;;;8.80;100.00
11038;BME280;5572;49.540;11.932;2023-02-21T08:17:16;96398.69;;;8.84;100.00
11038;BME280;5572;49.540;11.932;2023-02-21T08:19:43;96433.75;;;8.84;100.00
11038;BME280;5572;49.540;11.932;2023-02-21T08:22:10;96433.16;;;8.92;100.00
11038;BME280;5572;49.540;11.932;2023-02-21T08:24:36;96449.19;;;9.07;100.00
11038;BME280;5572;49.540;11.932;2023-02-21T08:27:03;96459.59;;;9.19;100.00
11038;BME280;5572;49.540;11.932;2023-02-21T08:29:31;96473.28;;;9.27;100.00
11038;BME280;5572;49.540;11.932;2023-02-21T08:31:58;96484.28;;;9.36;100.00
11038;BME280;5572;49.540;11.932;2023-02-21T08:34:24;96500.22;;;9.60;100.00
11038;BME280;5572;49.540;11.932;2023-02-21T08:36:54;96532.16;;;9.53;100.00
11038;BME280;5572;49.540;11.932;2023-02-21T08:39:20;96525.66;;;9.83;100.00
11038;BME280;5572;49.540;11.932;2023-02-21T08:41:47;96549.88;;;9.59;100.00
11038;BME280;5572;49.540;11.932;2023-02-21T08:44:16;96562.78;;;9.96;100.00
11038;BME280;5572;49.540;11.932;2023-02-21T08:46:47;96583.09;;;9.88;100.00
11038;BME280;5572;49.540;11.932;2023-02-21T08:49:14;96585.28;;;10.15;100.00
11038;BME280;5572;49.540;11.932;2023-02-21T08:51:41;96599.69;;;10.33;100.00
11038;BME280;5572;49.540;11.932;2023-02-21T08:54:08;96636.31;;;10.44;100.00
11038;BME280;5572;49.540;11.932;2023-02-21T08:56:34;96663.66;;;10.66;100.00
11038;BME280;5572;49.540;11.932;2023-02-21T08:59:01;96708.50;;;12.29;100.00
11038;BME280;5572;49.540;11.932;2023-02-21T09:01:31;96717.47;;;12.43;100.00
11038;BME280;5572;49.540;11.932;2023-02-21T09:04:00;96762.03;;;11.40;100.00
11038;BME280;5572;49.540;11.932;2023-02-21T09:06:27;96780.00;;;11.31;100.00
11038;BME280;5572;49.540;11.932;2023-02-21T09:08:53;96812.00;;;11.01;100.00
11038;BME280;5572;49.540;11.932;2023-02-21T09:11:20;96840.84;;;11.11;100.00
11038;BME280;5572;49.540;11.932;2023-02-21T09:13:47;96851.41;;;11.12;100.00
11038;BME280;5572;49.540;11.932;2023-02-21T09:16:13;96845.28;;;11.77;100.00
11038;BME280;5572;49.540;11.932;2023-02-21T09:18:40;96861.66;;;12.08;100.00
11038;BME280;5572;49.540;11.932;2023-02-21T09:21:08;96885.50;;;12.48;100.00
11038;BME280;5572;49.540;11.932;2023-02-21T09:23:35;96899.41;;;12.23;100.00
11038;BME280;5572;49.540;11.932;2023-02-21T09:26:01;96953.28;;;11.83;100.00
11038;BME280;5572;49.540;11.932;2023-02-21T09:28:28;96972.97;;;11.65;100.00
11038;BME280;5572;49.540;11.932;2023-02-21T09:30:55;96993.44;;;11.76;100.00
11038;BME280;5572;49.540;11.932;2023-02-21T09:33:22;97009.81;;;11.61;100.00
11038;BME280;5572;49.540;11.932;2023-02-21T09:35:48;97033.66;;;11.59;100.00
11038;BME280;5572;49.540;11.932;2023-02-21T09:38:17;97048.09;;;11.45;100.00
11038;BME280;5572;49.540;11.932;2023-02-21T09:40:47;97064.72;;;11.28;100.00
11038;BME280;5572;49.540;11.932;2023-02-21T09:43:18;97086.66;;;11.27;100.00
11038;BME280;5572;49.540;11.932;2023-02-21T09:45:47;97087.41;;;11.37;100.00
11038;BME280;5572;49.540;11.932;2023-02-21T09:48:17;97084.69;;;11.76;100.00
11038;BME280;5572;49.540;11.932;2023-02-21T09:50:47;97106.81;;;11.49;100.00
11038;BME280;5572;49.540;11.932;2023-02-21T09:53:19;97127.97;;;11.47;100.00
11038;BME280;5572;49.540;11.932;2023-02-21T09:55:47;97125.44;;;11.61;100.00
11038;BME280;5572;49.540;11.932;2023-02-21T09:58:17;97130.91;;;11.89;100.00
11038;BME280;5572;49.540;11.932;2023-02-21T10:00:45;97160.13;;;11.59;100.00
11038;BME280;5572;49.540;11.932;2023-02-21T10:03:39;97180.16;;;11.58;100.00
11038;BME280;5572;49.540;11.932;2023-02-21T10:06:16;97190.84;;;11.83;100.00
11038;BME280;5572;49.540;11.932;2023-02-21T10:08:52;97225.19;;;11.34;100.00
11038;BME280;5572;49.540;11.932;2023-02-21T10:11:27;97213.84;;;11.80;100.00
11038;BME280;5572;49.540;11.932;2023-02-21T10:14:03;97237.56;;;11.60;100.00
11038;BME280;5572;49.540;11.932;2023-02-21T10:16:35;97235.34;;;11.67;100.00
11038;BME280;5572;49.540;11.932;2023-02-21T10:19:12;97223.69;;;12.09;100.00
11038;BME280;5572;49.540;11.932;2023-02-21T10:21:45;97242.84;;;11.80;100.00
11038;BME280;5572;49.540;11.932;2023-02-21T10:24:14;97251.94;;;11.99;100.00
11038;BME280;5572;49.540;11.932;2023-02-21T10:26:47;97243.03;;;12.31;100.00
11038;BME280;5572;49.540;11.932;2023-02-21T10:29:20;97258.59;;;12.16;100.00
11038;BME280;5572;49.540;11.932;2023-02-21T10:31:49;97266.28;;;12.37;100.00
11038;BME280;5572;49.540;11.932;2023-02-21T10:34:22;97261.50;;;12.24;100.00
11038;BME280;5572;49.540;11.932;2023-02-21T10:36:51;97251.19;;;12.88;100.00
11038;BME280;5572;49.540;11.932;2023-02-21T10:39:21;97293.78;;;12.21;100.00
11038;BME280;5572;49.540;11.932;2023-02-21T10:41:51;97313.47;;;12.36;100.00
11038;BME280;5572;49.540;11.932;2023-02-21T10:44:20;97336.22;;;11.97;100.00
11038;BME280;5572;49.540;11.932;2023-02-21T10:46:54;97370.91;;;11.90;100.00
11038;BME280;5572;49.540;11.932;2023-02-21T10:49:25;97349.00;;;12.35;100.00
11038;BME280;5572;49.540;11.932;2023-02-21T10:52:06;97347.72;;;12.22;100.00
11038;BME280;5572;49.540;11.932;2023-02-21T10:54:35;97347.25;;;12.54;100.00
11038;BME280;5572;49.540;11.932;2023-02-21T10:57:04;97387.66;;;12.02;100.00
11038;BME280;5572;49.540;11.932;2023-02-21T10:59:34;97369.66;;;12.26;100.00
11038;BME280;5572;49.540;11.932;2023-02-21T11:02:03;97390.56;;;12.20;100.00
11038;BME280;5572;49.540;11.932;2023-02-21T11:04:49;97418.16;;;12.32;100.00
11038;BME280;5572;49.540;11.932;2023-02-21T11:07:17;97414.88;;;12.35;100.00
11038;BME280;5572;49.540;11.932;2023-02-21T11:09:46;97434.50;;;12.12;100.00
11038;BME280;5572;49.540;11.932;2023-02-21T11:12:20;97456.50;;;12.01;100.00
11038;BME280;5572;49.540;11.932;2023-02-21T11:15:14;97477.13;;;11.92;100.00
11038;BME280;5572;49.540;11.932;2023-02-21T11:17:41;97498.88;;;11.57;100.00
11038;BME280;5572;49.540;11.932;2023-02-21T11:20:17;97507.50;;;11.64;100.00
11038;BME280;5572;49.540;11.932;2023-02-21T11:22:45;97513.72;;;11.70;100.00
11038;BME280;5572;49.540;11.932;2023-02-21T11:25:20;97501.00;;;11.75;100.00
11038;BME280;5572;49.540;11.932;2023-02-21T11:28:00;97497.75;;;11.73;100.00
11038;BME280;5572;49.540;11.932;2023-02-21T11:30:29;97482.00;;;11.85;100.00
11038;BME280;5572;49.540;11.932;2023-02-21T11:32:57;97484.69;;;11.90;100.00
11038;BME280;5572;49.540;11.932;2023-02-21T11:35:27;97488.81;;;11.83;100.00
11038;BME280;5572;49.540;11.932;2023-02-21T11:37:56;97503.41;;;11.87;100.00
11038;BME280;5572;49.540;11.932;2023-02-21T11:40:32;97497.44;;;11.85;100.00
11038;BME280;5572;49.540;11.932;2023-02-21T11:43:18;97483.28;;;12.07;100.00
11038;BME280;5572;49.540;11.932;2023-02-21T11:45:58;97491.47;;;11.93;100.00
11038;BME280;5572;49.540;11.932;2023-02-21T11:48:29;97486.00;;;12.12;100.00
11038;BME280;5572;49.540;11.932;2023-02-21T11:51:02;97471.34;;;12.18;100.00
11038;BME280;5572;49.540;11.932;2023-02-21T11:53:35;97467.25;;;12.21;100.00
11038;BME280;5572;49.540;11.932;2023-02-21T11:56:14;97456.94;;;12.23;100.00
11038;BME280;5572;49.540;11.932;2023-02-21T11:58:48;97443.19;;;12.63;100.00
11038;BME280;5572;49.540;11.932;2023-02-21T12:01:24;97407.84;;;12.78;100.00
11038;BME280;5572;49.540;11.932;2023-02-21T12:04:03;97397.47;;;13.18;100.00
11038;BME280;5572;49.540;11.932;2023-02-21T12:06:38;97399.66;;;12.83;100.00
11038;BME280;5572;49.540;11.932;2023-02-21T12:09:10;97393.69;;;12.81;100.00
11038;BME280;5572;49.540;11.932;2023-02-21T12:11:55;97391.75;;;13.19;100.00
11038;BME280;5572;49.540;11.932;2023-02-21T12:17:31;97391.84;;;13.09;100.00
11038;BME280;5572;49.540;11.932;2023-02-21T12:22:59;97404.91;;;12.69;100.00
11038;BME280;5572;49.540;11.932;2023-02-21T12:25:32;97394.47;;;12.86;100.00
11038;BME280;5572;49.540;11.932;2023-02-21T12:28:12;97382.75;;;13.52;100.00
11038;BME280;5572;49.540;11.932;2023-02-21T12:30:54;97363.06;;;13.65;100.00
11038;BME280;5572;49.540;11.932;2023-02-21T12:33:33;97383.03;;;13.27;100.00
11038;BME280;5572;49.540;11.932;2023-02-21T12:36:19;97365.84;;;14.25;100.00
11038;BME280;5572;49.540;11.932;2023-02-21T12:39:05;97355.00;;;14.02;100.00
11038;BME280;5572;49.540;11.932;2023-02-21T12:42:00;97358.66;;;14.11;100.00
11038;BME280;5572;49.540;11.932;2023-02-21T12:44:35;97360.03;;;14.13;100.00
11038;BME280;5572;49.540;11.932;2023-02-21T12:47:11;97397.53;;;13.41;100.00
11038;BME280;5572;49.540;11.932;2023-02-21T12:49:44;97384.06;;;13.78;100.00
11038;BME280;5572;49.540;11.932;2023-02-21T12:52:19;97382.47;;;14.00;100.00
11038;BME280;5572;49.540;11.932;2023-02-21T12:54:51;97393.06;;;13.55;100.00
11038;BME280;5572;49.540;11.932;2023-02-21T12:57:24;97382.13;;;14.30;100.00
11038;BME280;5572;49.540;11.932;2023-02-21T13:00:02;97367.72;;;14.66;100.00
11038;BME280;5572;49.540;11.932;2023-02-21T13:02:43;97338.56;;;14.85;100.00
11038;BME280;5572;49.540;11.932;2023-02-21T13:05:18;97352.03;;;15.09;100.00
11038;BME280;5572;49.540;11.932;2023-02-21T13:07:49;97328.97;;;15.20;100.00
11038;BME280;5572;49.540;11.932;2023-02-21T13:10:19;97319.25;;;15.59;100.00
11038;BME280;5572;49.540;11.932;2023-02-21T13:12:53;97344.88;;;15.45;100.00
11038;BME280;5572;49.540;11.932;2023-02-21T13:15:26;97384.09;;;14.62;100.00
11038;BME280;5572;49.540;11.932;2023-02-21T13:17:57;97340.44;;;15.17;100.00
11038;BME280;5572;49.540;11.932;2023-02-21T13:20:27;97446.44;;;13.93;100.00
11038;BME280;5572;49.540;11.932;2023-02-21T13:26:09;97494.19;;;14.27;100.00
11038;BME280;5572;49.540;11.932;2023-02-21T13:28:40;97482.63;;;13.88;100.00
11038;BME280;5572;49.540;11.932;2023-02-21T13:31:17;97512.53;;;13.88;100.00
11038;BME280;5572;49.540;11.932;2023-02-21T13:33:49;97491.44;;;14.04;100.00
11038;BME280;5572;49.540;11.932;2023-02-21T13:36:21;97508.63;;;13.99;100.00
11038;BME280;5572;49.540;11.932;2023-02-21T13:39:01;97519.53;;;13.94;100.00
11038;BME280;5572;49.540;11.932;2023-02-21T13:41:32;97516.53;;;13.96;100.00
11038;BME280;5572;49.540;11.932;2023-02-21T13:44:04;97546.69;;;13.99;100.00